createdAt,value
2022-12-09T00:01:56.623Z,100.00
2022-12-09T00:04:26.612Z,100.00
2022-12-09T00:06:55.522Z,100.00
2022-12-09T00:09:25.442Z,100.00
2022-12-09T00:11:54.262Z,100.00
2022-12-09T00:14:22.737Z,100.00
2022-12-09T00:16:51.175Z,100.00
2022-12-09T00:19:19.659Z,100.00
2022-12-09T00:21:49.332Z,100.00
2022-12-09T00:24:17.664Z,100.00
2022-12-09T00:26:46.120Z,100.00
2022-12-09T00:29:14.794Z,100.00
2022-12-09T00:31:43.325Z,100.00
2022-12-09T00:34:14.650Z,100.00
2022-12-09T00:36:43.368Z,100.00
2022-12-09T00:39:13.421Z,100.00
2022-12-09T00:41:42.115Z,100.00
2022-12-09T00:44:11.376Z,100.00
2022-12-09T00:46:39.851Z,100.00
2022-12-09T00:49:08.479Z,100.00
2022-12-09T00:51:38.165Z,100.00
2022-12-09T00:54:06.372Z,100.00
2022-12-09T00:56:36.046Z,100.00
2022-12-09T00:59:04.476Z,100.00
2022-12-09T01:01:32.920Z,100.00
2022-12-09T01:04:02.618Z,100.00
2022-12-09T01:06:31.106Z,100.00
2022-12-09T01:08:59.565Z,100.00
2022-12-09T01:11:31.139Z,100.00
2022-12-09T01:14:03.075Z,100.00
2022-12-09T01:16:33.454Z,100.00
2022-12-09T01:19:04.204Z,100.00
2022-12-09T01:21:34.266Z,100.00
2022-12-09T01:24:03.401Z,100.00
2022-12-09T01:26:31.791Z,100.00
2022-12-09T01:29:01.427Z,100.00
2022-12-09T01:31:30.088Z,100.00
2022-12-09T01:33:58.681Z,100.00
2022-12-09T01:36:29.733Z,100.00
2022-12-09T01:38:59.046Z,100.00
2022-12-09T01:41:28.276Z,100.00
2022-12-09T01:44:19.596Z,100.00
2022-12-09T01:46:48.635Z,100.00
2022-12-09T01:49:22.331Z,100.00
2022-12-09T01:51:57.628Z,100.00
2022-12-09T01:54:26.061Z,100.00
2022-12-09T01:56:56.101Z,100.00
2022-12-09T01:59:27.146Z,100.00
2022-12-09T02:02:00.012Z,100.00
2022-12-09T02:04:31.360Z,100.00
2022-12-09T02:07:03.466Z,100.00
2022-12-09T02:09:31.835Z,100.00
2022-12-09T02:12:12.967Z,100.00
2022-12-09T02:14:46.974Z,100.00
2022-12-09T02:17:26.966Z,100.00
2022-12-09T02:20:03.042Z,100.00
2022-12-09T02:22:36.277Z,100.00
2022-12-09T02:25:13.934Z,100.00
2022-12-09T02:27:48.504Z,100.00
2022-12-09T02:30:22.640Z,100.00
2022-12-09T02:33:19.430Z,100.00
2022-12-09T02:35:55.004Z,100.00
2022-12-09T02:38:27.152Z,100.00
2022-12-09T02:41:01.463Z,100.00
2022-12-09T02:43:35.432Z,100.00
2022-12-09T02:46:05.994Z,100.00
2022-12-09T02:48:38.650Z,100.00
2022-12-09T02:51:11.679Z,100.00
2022-12-09T02:53:43.931Z,100.00
2022-12-09T02:56:15.866Z,100.00
2022-12-09T02:58:43.995Z,100.00
2022-12-09T03:01:22.346Z,100.00
2022-12-09T03:03:52.715Z,100.00
2022-12-09T03:06:29.625Z,100.00
2022-12-09T03:09:02.008Z,100.00
2022-12-09T03:11:33.629Z,100.00
2022-12-09T03:14:07.318Z,100.00
2022-12-09T03:16:38.613Z,100.00
2022-12-09T03:19:11.261Z,100.00
2022-12-09T03:21:45.597Z,100.00
2022-12-09T03:24:19.071Z,100.00
2022-12-09T03:26:49.257Z,100.00
2022-12-09T03:29:20.435Z,100.00
2022-12-09T03:31:50.826Z,100.00
2022-12-09T03:34:23.980Z,100.00
2022-12-09T03:36:54.625Z,100.00
2022-12-09T03:39:26.852Z,100.00
2022-12-09T03:41:58.534Z,100.00
2022-12-09T03:44:32.725Z,100.00
2022-12-09T03:47:01.400Z,100.00
2022-12-09T03:49:30.607Z,100.00
2022-12-09T03:52:07.121Z,100.00
2022-12-09T03:54:42.047Z,100.00
2022-12-09T03:57:18.452Z,100.00
2022-12-09T03:59:55.365Z,100.00
2022-12-09T04:02:24.589Z,100.00
2022-12-09T04:04:53.273Z,100.00
2022-12-09T04:07:23.458Z,100.00
2022-12-09T04:09:52.085Z,100.00
2022-12-09T04:12:20.508Z,100.00
2022-12-09T04:14:49.091Z,100.00
2022-12-09T04:17:17.695Z,100.00
2022-12-09T04:19:46.634Z,100.00
2022-12-09T04:22:15.652Z,100.00
2022-12-09T04:24:45.397Z,100.00
2022-12-09T04:27:13.867Z,100.00
2022-12-09T04:29:44.906Z,100.00
2022-12-09T04:32:13.498Z,100.00
2022-12-09T04:34:41.659Z,100.00
2022-12-09T04:37:10.003Z,100.00
2022-12-09T04:39:38.646Z,100.00
2022-12-09T04:42:08.725Z,100.00
2022-12-09T04:44:37.266Z,100.00
2022-12-09T04:47:05.900Z,100.00
2022-12-09T04:49:34.354Z,100.00
2022-12-09T04:52:02.998Z,100.00
2022-12-09T04:54:31.292Z,100.00
2022-12-09T04:56:59.702Z,100.00
2022-12-09T04:59:31.737Z,99.23
2022-12-09T05:02:00.173Z,98.17
2022-12-09T05:04:28.771Z,96.84
2022-12-09T05:06:57.314Z,96.46
2022-12-09T05:09:26.479Z,95.08
2022-12-09T05:11:55.331Z,94.52
2022-12-09T05:14:23.634Z,93.88
2022-12-09T05:16:53.753Z,93.06
2022-12-09T05:19:22.943Z,92.95
2022-12-09T05:21:51.381Z,92.77
2022-12-09T05:24:19.677Z,92.42
2022-12-09T05:26:48.486Z,92.61
2022-12-09T05:29:22.556Z,92.33
2022-12-09T05:31:53.296Z,92.18
2022-12-09T05:34:21.978Z,91.99
2022-12-09T05:36:52.425Z,92.05
2022-12-09T05:39:20.971Z,91.63
2022-12-09T05:41:49.592Z,92.49
2022-12-09T05:44:18.259Z,92.47
2022-12-09T05:46:46.854Z,92.40
2022-12-09T05:49:16.917Z,93.02
2022-12-09T05:51:45.512Z,93.37
2022-12-09T05:54:13.924Z,93.83
2022-12-09T05:56:47.849Z,94.13
2022-12-09T05:59:16.455Z,94.43
2022-12-09T06:01:45.118Z,94.46
2022-12-09T06:04:13.935Z,94.62
2022-12-09T06:06:44.209Z,93.94
2022-12-09T06:09:12.700Z,94.35
2022-12-09T06:11:42.467Z,93.97
2022-12-09T06:14:12.124Z,93.43
2022-12-09T06:16:40.671Z,93.20
2022-12-09T06:19:11.212Z,93.27
2022-12-09T06:21:41.565Z,93.00
2022-12-09T06:24:11.893Z,92.58
2022-12-09T06:26:39.986Z,92.26
2022-12-09T06:29:08.680Z,92.29
2022-12-09T06:31:37.433Z,92.08
2022-12-09T06:34:06.287Z,91.65
2022-12-09T06:36:35.639Z,90.94
2022-12-09T06:39:09.952Z,90.87
2022-12-09T06:41:42.312Z,90.87
2022-12-09T06:44:16.971Z,91.58
2022-12-09T06:46:50.217Z,90.80
2022-12-09T06:49:19.143Z,90.06
2022-12-09T06:51:47.882Z,90.22
2022-12-09T06:54:16.653Z,89.85
2022-12-09T06:56:46.557Z,89.46
2022-12-09T06:59:14.989Z,89.31
2022-12-09T07:01:43.877Z,90.59
2022-12-09T07:04:15.190Z,89.58
2022-12-09T07:06:46.086Z,89.34
2022-12-09T07:09:16.568Z,90.28
2022-12-09T07:11:47.386Z,90.28
2022-12-09T07:14:18.620Z,89.15
2022-12-09T07:16:48.115Z,88.17
2022-12-09T07:19:19.207Z,87.42
2022-12-09T07:21:47.908Z,87.86
2022-12-09T07:24:17.265Z,86.68
2022-12-09T07:26:47.699Z,85.65
2022-12-09T07:29:16.499Z,85.12
2022-12-09T07:31:45.298Z,84.17
2022-12-09T07:34:13.791Z,83.79
2022-12-09T07:36:42.034Z,82.63
2022-12-09T07:39:16.561Z,82.58
2022-12-09T07:41:48.634Z,82.26
2022-12-09T07:44:17.426Z,82.15
2022-12-09T07:46:45.804Z,81.41
2022-12-09T07:49:14.573Z,80.83
2022-12-09T07:51:44.053Z,80.71
2022-12-09T07:54:14.509Z,80.37
2022-12-09T07:56:44.248Z,80.22
2022-12-09T07:59:16.205Z,80.60
2022-12-09T08:01:45.534Z,79.11
2022-12-09T08:04:14.650Z,79.33
2022-12-09T08:06:43.495Z,78.64
2022-12-09T08:09:14.766Z,78.40
2022-12-09T08:11:43.630Z,78.64
2022-12-09T08:14:14.373Z,79.50
2022-12-09T08:16:44.197Z,79.27
2022-12-09T08:19:13.720Z,79.72
2022-12-09T08:21:42.771Z,79.79
2022-12-09T08:24:13.215Z,78.72
2022-12-09T08:26:43.065Z,79.31
2022-12-09T08:29:13.442Z,78.32
2022-12-09T08:31:45.343Z,77.16
2022-12-09T08:34:16.149Z,76.74
2022-12-09T08:36:45.259Z,75.56
2022-12-09T08:39:14.879Z,75.90
2022-12-09T08:41:45.456Z,76.34
2022-12-09T08:44:16.080Z,76.50
2022-12-09T08:46:47.601Z,76.43
2022-12-09T08:49:19.053Z,77.25
2022-12-09T08:51:49.330Z,74.65
2022-12-09T08:54:18.122Z,72.61
2022-12-09T08:56:47.853Z,71.22
2022-12-09T08:59:17.115Z,71.79
2022-12-09T09:01:47.443Z,72.21
2022-12-09T09:04:18.257Z,72.00
2022-12-09T09:06:50.269Z,71.39
2022-12-09T09:09:20.402Z,71.89
2022-12-09T09:11:49.037Z,70.49
2022-12-09T09:14:18.275Z,70.83
2022-12-09T09:16:48.214Z,71.29
2022-12-09T09:19:19.479Z,71.01
2022-12-09T09:21:47.932Z,70.50
2022-12-09T09:24:18.201Z,70.03
2022-12-09T09:26:47.656Z,69.62
2022-12-09T09:29:18.242Z,68.08
2022-12-09T09:31:50.504Z,67.60
2022-12-09T09:34:19.339Z,66.68
2022-12-09T09:36:49.184Z,66.69
2022-12-09T09:39:17.509Z,66.02
2022-12-09T09:41:52.544Z,64.90
2022-12-09T09:44:26.671Z,63.93
2022-12-09T09:46:58.427Z,64.88
2022-12-09T09:49:33.864Z,65.70
2022-12-09T09:52:08.705Z,66.75
2022-12-09T09:54:37.955Z,65.70
2022-12-09T09:57:14.280Z,65.29
2022-12-09T09:59:52.268Z,65.68
2022-12-09T10:02:35.786Z,66.47
2022-12-09T10:05:14.387Z,67.35
2022-12-09T10:07:45.370Z,68.10
2022-12-09T10:10:25.506Z,68.42
2022-12-09T10:13:17.947Z,68.89
2022-12-09T10:15:54.036Z,69.37
2022-12-09T10:18:29.093Z,69.15
2022-12-09T10:20:58.113Z,68.46
2022-12-09T10:23:31.277Z,68.29
2022-12-09T10:26:04.897Z,68.38
2022-12-09T10:28:36.481Z,67.05
2022-12-09T10:31:05.350Z,67.73
2022-12-09T10:33:39.113Z,71.08
2022-12-09T10:36:09.159Z,73.00
2022-12-09T10:38:42.648Z,74.80
2022-12-09T10:41:40.277Z,75.86
2022-12-09T10:44:19.622Z,75.92
2022-12-09T10:46:48.628Z,76.54
2022-12-09T10:49:23.730Z,76.19
2022-12-09T10:51:54.733Z,76.88
2022-12-09T10:54:35.717Z,77.21
2022-12-09T10:57:10.995Z,77.54
2022-12-09T10:59:41.642Z,77.54
2022-12-09T11:02:22.894Z,78.03
2022-12-09T11:04:52.964Z,78.61
2022-12-09T11:07:25.913Z,79.83
2022-12-09T11:10:08.593Z,80.30
2022-12-09T11:12:41.349Z,82.00
2022-12-09T11:15:27.999Z,81.69
2022-12-09T11:18:00.400Z,81.51
2022-12-09T11:20:32.694Z,81.23
2022-12-09T11:23:05.254Z,81.64
2022-12-09T11:25:36.113Z,81.33
2022-12-09T11:28:06.691Z,81.80
2022-12-09T11:30:57.860Z,82.51
2022-12-09T11:33:31.644Z,82.42
2022-12-09T11:36:09.505Z,81.70
2022-12-09T11:38:41.350Z,81.63
2022-12-09T11:41:36.715Z,81.17
2022-12-09T11:44:15.515Z,81.83
2022-12-09T11:46:43.896Z,82.46
2022-12-09T11:49:17.616Z,82.41
2022-12-09T11:52:01.966Z,82.18
2022-12-09T11:54:36.326Z,82.86
2022-12-09T11:57:07.621Z,83.34
2022-12-09T11:59:44.352Z,83.59
2022-12-09T12:02:16.142Z,83.82
2022-12-09T12:04:55.560Z,84.65
2022-12-09T12:07:32.396Z,84.49
2022-12-09T12:10:00.590Z,84.46
2022-12-09T12:12:39.553Z,84.42
2022-12-09T12:15:15.302Z,84.53
2022-12-09T12:17:44.910Z,85.04
2022-12-09T12:20:17.545Z,85.60
2022-12-09T12:23:15.982Z,84.71
2022-12-09T12:25:56.868Z,83.37
2022-12-09T12:28:58.094Z,82.55
2022-12-09T12:31:45.633Z,81.73
2022-12-09T12:34:25.069Z,81.53
2022-12-09T12:37:03.244Z,81.59
2022-12-09T12:39:45.497Z,81.41
2022-12-09T12:42:25.733Z,81.37
2022-12-09T12:45:20.211Z,80.50
2022-12-09T12:47:55.681Z,79.85
2022-12-09T12:50:47.348Z,79.82
2022-12-09T12:53:26.549Z,79.11
2022-12-09T12:56:01.359Z,78.67
2022-12-09T12:58:48.810Z,77.46
2022-12-09T13:01:25.695Z,77.71
2022-12-09T13:04:03.147Z,78.32
2022-12-09T13:06:41.293Z,78.75
2022-12-09T13:09:14.913Z,79.55
2022-12-09T13:11:54.154Z,80.54
2022-12-09T13:14:32.083Z,81.42
2022-12-09T13:17:01.825Z,82.33
2022-12-09T13:19:37.656Z,82.16
2022-12-09T13:22:06.376Z,82.68
2022-12-09T13:24:42.390Z,82.71
2022-12-09T13:27:19.312Z,82.57
2022-12-09T13:29:57.588Z,82.85
2022-12-09T13:32:41.612Z,83.54
2022-12-09T13:35:15.195Z,84.05
2022-12-09T13:38:00.722Z,84.60
2022-12-09T13:40:35.418Z,85.49
2022-12-09T13:43:25.856Z,87.35
2022-12-09T13:45:59.085Z,88.07
2022-12-09T13:48:51.899Z,88.92
2022-12-09T13:51:21.602Z,89.29
2022-12-09T13:53:53.873Z,90.26
2022-12-09T13:56:28.341Z,91.30
2022-12-09T13:59:22.593Z,91.81
2022-12-09T14:01:54.824Z,92.26
2022-12-09T14:04:27.146Z,94.67
2022-12-09T14:07:02.867Z,93.96
2022-12-09T14:09:40.654Z,93.58
2022-12-09T14:12:12.836Z,97.86
2022-12-09T14:15:01.679Z,100.00
2022-12-09T14:18:04.644Z,100.00
2022-12-09T14:20:36.474Z,100.00
2022-12-09T14:23:14.878Z,100.00
2022-12-09T14:25:56.866Z,100.00
2022-12-09T14:28:27.292Z,100.00
2022-12-09T14:31:04.753Z,100.00
2022-12-09T14:33:39.055Z,100.00
2022-12-09T14:36:20.902Z,100.00
2022-12-09T14:41:53.172Z,100.00
2022-12-09T14:44:32.076Z,100.00
2022-12-09T14:47:16.935Z,100.00
2022-12-09T14:49:49.517Z,100.00
2022-12-09T14:52:23.694Z,100.00
2022-12-09T14:54:55.355Z,100.00
2022-12-09T14:57:26.322Z,100.00
2022-12-09T14:59:57.337Z,100.00
2022-12-09T15:02:30.197Z,100.00
2022-12-09T15:05:01.179Z,100.00
2022-12-09T15:07:31.222Z,100.00
2022-12-09T15:10:00.734Z,100.00
2022-12-09T15:12:33.699Z,100.00
2022-12-09T15:15:08.051Z,100.00
2022-12-09T15:17:43.369Z,100.00
2022-12-09T15:20:23.964Z,100.00
2022-12-09T15:22:53.607Z,100.00
2022-12-09T15:25:23.317Z,100.00
2022-12-09T15:27:59.606Z,100.00
2022-12-09T15:30:32.343Z,100.00
2022-12-09T15:33:02.459Z,100.00
2022-12-09T15:35:33.612Z,100.00
2022-12-09T15:38:06.612Z,100.00
2022-12-09T15:40:37.182Z,100.00
2022-12-09T15:43:10.531Z,100.00
2022-12-09T15:45:41.028Z,100.00
2022-12-09T15:48:16.501Z,100.00
2022-12-09T15:50:49.066Z,100.00
2022-12-09T15:53:24.543Z,100.00
2022-12-09T15:55:56.104Z,100.00
2022-12-09T15:58:27.139Z,100.00
2022-12-09T16:00:56.136Z,100.00
2022-12-09T16:03:32.891Z,100.00
2022-12-09T16:06:04.260Z,100.00
2022-12-09T16:08:35.316Z,100.00
2022-12-09T16:11:03.944Z,100.00
2022-12-09T16:13:32.209Z,100.00
2022-12-09T16:16:03.107Z,100.00
2022-12-09T16:18:49.851Z,100.00
2022-12-09T16:21:28.120Z,100.00
2022-12-09T16:24:06.057Z,100.00
2022-12-09T16:26:37.952Z,100.00
2022-12-09T16:29:17.679Z,100.00
2022-12-09T16:31:45.919Z,100.00
2022-12-09T16:34:23.067Z,100.00
2022-12-09T16:36:56.350Z,100.00
2022-12-09T16:39:35.563Z,100.00
2022-12-09T16:42:03.733Z,100.00
2022-12-09T16:44:35.007Z,100.00
2022-12-09T16:47:15.053Z,100.00
2022-12-09T16:49:47.746Z,100.00
2022-12-09T16:52:18.490Z,100.00
2022-12-09T16:54:48.429Z,100.00
2022-12-09T16:57:18.429Z,100.00
2022-12-09T16:59:47.093Z,100.00
2022-12-09T17:02:25.374Z,100.00
2022-12-09T17:04:54.978Z,100.00
2022-12-09T17:07:23.216Z,100.00
2022-12-09T17:09:51.762Z,100.00
2022-12-09T17:12:20.115Z,100.00
2022-12-09T17:14:48.409Z,100.00
2022-12-09T17:17:16.566Z,100.00
2022-12-09T17:19:44.979Z,100.00
2022-12-09T17:22:14.653Z,100.00
2022-12-09T17:24:42.930Z,100.00
2022-12-09T17:27:11.195Z,100.00
2022-12-09T17:29:39.349Z,100.00
2022-12-09T17:32:07.675Z,100.00
2022-12-09T17:34:36.612Z,100.00
2022-12-09T17:37:04.962Z,100.00
2022-12-09T17:39:35.122Z,100.00
2022-12-09T17:42:03.946Z,100.00
2022-12-09T17:44:33.049Z,100.00
2022-12-09T17:47:01.634Z,100.00
2022-12-09T17:49:29.734Z,100.00
2022-12-09T17:51:57.821Z,100.00
2022-12-09T17:54:26.132Z,100.00
2022-12-09T17:56:55.686Z,100.00
2022-12-09T17:59:23.931Z,100.00
2022-12-09T18:01:52.341Z,100.00
2022-12-09T18:04:20.705Z,100.00
2022-12-09T18:06:48.968Z,100.00
2022-12-09T18:09:19.251Z,100.00
2022-12-09T18:11:48.043Z,100.00
2022-12-09T18:14:17.957Z,100.00
2022-12-09T18:16:47.299Z,100.00
2022-12-09T18:19:17.445Z,100.00
2022-12-09T18:21:46.572Z,100.00
2022-12-09T18:24:14.980Z,100.00
2022-12-09T18:26:43.407Z,100.00
2022-12-09T18:29:12.670Z,100.00
2022-12-09T18:31:45.758Z,100.00
2022-12-09T18:34:14.131Z,100.00
2022-12-09T18:36:42.382Z,100.00
2022-12-09T18:39:10.608Z,100.00
2022-12-09T18:41:38.900Z,100.00
2022-12-09T18:44:08.345Z,100.00
2022-12-09T18:46:39.262Z,100.00
2022-12-09T18:49:15.042Z,100.00
2022-12-09T18:51:44.399Z,100.00
2022-12-09T18:54:16.818Z,100.00
2022-12-09T18:56:45.458Z,100.00
2022-12-09T18:59:14.282Z,100.00
2022-12-09T19:01:45.643Z,100.00
2022-12-09T19:04:17.432Z,100.00
2022-12-09T19:06:47.715Z,100.00
2022-12-09T19:09:17.666Z,100.00
2022-12-09T19:11:47.910Z,100.00
2022-12-09T19:14:17.043Z,100.00
2022-12-09T19:16:45.992Z,100.00
2022-12-09T19:19:18.243Z,100.00
2022-12-09T19:21:47.360Z,100.00
2022-12-09T19:24:17.856Z,100.00
2022-12-09T19:26:46.364Z,100.00
2022-12-09T19:29:15.757Z,100.00
2022-12-09T19:31:45.800Z,100.00
2022-12-09T19:34:17.785Z,100.00
2022-12-09T19:36:47.781Z,100.00
2022-12-09T19:39:17.059Z,100.00
2022-12-09T19:41:46.034Z,100.00
2022-12-09T19:44:30.973Z,100.00
2022-12-09T19:47:04.261Z,100.00
2022-12-09T19:49:33.887Z,100.00
2022-12-09T19:52:02.121Z,100.00
2022-12-09T19:54:30.567Z,100.00
2022-12-09T19:56:59.109Z,100.00
2022-12-09T19:59:28.548Z,100.00
2022-12-09T20:01:57.606Z,100.00
2022-12-09T20:07:18.392Z,100.00
2022-12-09T20:09:46.577Z,100.00
2022-12-09T20:12:14.847Z,100.00
2022-12-09T20:14:43.314Z,100.00
2022-12-09T20:17:11.699Z,100.00
2022-12-09T20:19:41.215Z,100.00
2022-12-09T20:22:09.366Z,100.00
2022-12-09T20:24:38.831Z,100.00
2022-12-09T20:27:07.117Z,100.00
2022-12-09T20:29:38.205Z,100.00
2022-12-09T20:32:07.376Z,100.00
2022-12-09T20:34:36.222Z,100.00
2022-12-09T20:37:04.747Z,100.00
2022-12-09T20:39:32.905Z,100.00
2022-12-09T20:42:02.435Z,100.00
2022-12-09T20:44:32.420Z,100.00
2022-12-09T20:47:00.583Z,100.00
2022-12-09T20:49:29.895Z,100.00
2022-12-09T20:51:58.263Z,100.00
2022-12-09T20:54:27.103Z,100.00
2022-12-09T20:56:55.326Z,100.00
2022-12-09T20:59:25.384Z,100.00
2022-12-09T21:01:54.410Z,100.00
2022-12-09T21:04:22.943Z,100.00
2022-12-09T21:06:51.637Z,100.00
2022-12-09T21:09:21.647Z,100.00
2022-12-09T21:11:51.014Z,100.00
2022-12-09T21:14:19.662Z,100.00
2022-12-09T21:16:50.577Z,100.00
2022-12-09T21:19:24.458Z,100.00
2022-12-09T21:21:53.266Z,100.00
2022-12-09T21:24:23.222Z,100.00
2022-12-09T21:26:53.439Z,100.00
2022-12-09T21:29:24.634Z,100.00
2022-12-09T21:31:57.276Z,100.00
2022-12-09T21:34:25.604Z,100.00
2022-12-09T21:36:53.748Z,100.00
2022-12-09T21:39:21.949Z,100.00
2022-12-09T21:41:50.072Z,100.00
2022-12-09T21:44:22.266Z,100.00
2022-12-09T21:46:50.348Z,100.00
2022-12-09T21:49:19.907Z,100.00
2022-12-09T21:51:48.374Z,100.00
2022-12-09T21:54:16.974Z,100.00
2022-12-09T21:56:45.298Z,100.00
2022-12-09T21:59:13.471Z,100.00
2022-12-09T22:01:43.011Z,100.00
2022-12-09T22:04:13.103Z,100.00
2022-12-09T22:06:42.998Z,100.00
2022-12-09T22:09:12.862Z,100.00
2022-12-09T22:11:41.443Z,100.00
2022-12-09T22:14:11.458Z,100.00
2022-12-09T22:16:42.609Z,100.00
2022-12-09T22:19:14.448Z,100.00
2022-12-09T22:21:44.423Z,100.00
2022-12-09T22:24:14.405Z,100.00
2022-12-09T22:26:44.497Z,100.00
2022-12-09T22:29:14.935Z,100.00
2022-12-09T22:31:44.617Z,100.00
2022-12-09T22:34:14.604Z,100.00
2022-12-09T22:36:44.663Z,100.00
2022-12-09T22:39:15.739Z,100.00
2022-12-09T22:41:45.992Z,100.00
2022-12-09T22:44:15.641Z,100.00
2022-12-09T22:46:44.115Z,100.00
2022-12-09T22:49:14.153Z,100.00
2022-12-09T22:51:44.668Z,100.00
2022-12-09T22:54:13.797Z,100.00
2022-12-09T22:56:43.754Z,100.00
2022-12-09T22:59:13.749Z,100.00
2022-12-09T23:01:42.169Z,100.00
2022-12-09T23:04:11.539Z,100.00
2022-12-09T23:06:40.806Z,100.00
2022-12-09T23:09:12.766Z,100.00
2022-12-09T23:11:40.866Z,100.00
2022-12-09T23:14:09.057Z,100.00
2022-12-09T23:16:37.385Z,100.00
2022-12-09T23:19:05.722Z,100.00
2022-12-09T23:21:35.923Z,100.00
2022-12-09T23:24:06.579Z,100.00
2022-12-09T23:26:39.354Z,100.00
2022-12-09T23:29:10.062Z,100.00
2022-12-09T23:31:39.842Z,100.00
2022-12-09T23:34:09.366Z,100.00
2022-12-09T23:36:39.826Z,100.00
2022-12-09T23:39:12.507Z,100.00
2022-12-09T23:41:43.509Z,100.00
2022-12-09T23:44:13.254Z,100.00
2022-12-09T23:46:41.459Z,100.00
2022-12-09T23:49:09.735Z,100.00
2022-12-09T23:51:40.873Z,100.00
2022-12-09T23:54:10.944Z,100.00
2022-12-09T23:56:44.189Z,100.00
2022-12-09T23:59:14.512Z,100.00
